Time;durP1;ratioP1;P1;durP2;ratioP2;P2;SDS_P1;SDS_P2;PMS_P1;PMS_P2;Temp;Humidity;BMP_temperature;BMP_pressure;BME280_temperature;BME280_humidity;BME280_pressure;Samples;Min_cycle;Max_cycle;Signal;HPM_P1;HPM_P2
2021/12/04 00:01:50;;;;;;;53.27;25.60;;;4.50;99.90;;;;;;6263601;22;20087;-85
2021/12/04 00:04:37;;;;;;;52.97;23.73;;;4.50;99.90;;;;;;6284864;22;20037;-86
2021/12/04 00:07:27;;;;;;;57.83;25.60;;;4.40;99.90;;;;;;6243368;22;20022;-84
2021/12/04 00:10:21;;;;;;;53.17;24.02;;;5.00;99.90;;;;;;6264121;22;20103;-82
2021/12/04 00:13:05;;;;;;;51.95;23.20;;;4.40;99.90;;;;;;6265647;22;20110;-83
2021/12/04 00:15:50;;;;;;;57.55;24.30;;;5.10;99.90;;;;;;6284852;22;20498;-82
2021/12/04 00:18:34;;;;;;;64.25;26.55;;;4.40;99.90;;;;;;6241807;22;20023;-82
2021/12/04 00:21:18;;;;;;;56.63;24.33;;;4.30;99.90;;;;;;6285140;22;20337;-83
2021/12/04 00:24:03;;;;;;;60.03;23.65;;;6.10;99.90;;;;;;6285324;22;20328;-82
2021/12/04 00:26:49;;;;;;;53.95;24.70;;;4.40;99.90;;;;;;6262595;22;20019;-84
2021/12/04 00:29:33;;;;;;;65.47;25.05;;;4.60;99.90;;;;;;6307831;22;20096;-85
2021/12/04 00:32:26;;;;;;;59.20;25.48;;;6.40;99.90;;;;;;6308257;22;20084;-84
2021/12/04 00:35:32;;;;;;;63.00;23.77;;;4.40;99.90;;;;;;6287114;22;20118;-83
2021/12/04 00:50:22;;;;;;;57.42;23.25;;;4.40;99.90;;;;;;6258320;22;20019;-83
2021/12/04 00:53:10;;;;;;;66.22;24.95;;;4.40;99.90;;;;;;6211723;22;20445;-83
2021/12/04 00:55:54;;;;;;;65.13;24.53;;;4.40;99.90;;;;;;6211022;22;20107;-83
2021/12/04 00:58:38;;;;;;;;;;;5.30;99.90;;;;;;6254024;22;20401;-83
2021/12/04 01:01:22;;;;;;;57.53;23.50;;;4.40;99.90;;;;;;6232723;22;20375;-82
2021/12/04 01:04:15;;;;;;;;;;;5.50;99.90;;;;;;6277550;22;20065;-82
2021/12/04 01:07:02;;;;;;;55.83;22.58;;;4.40;99.90;;;;;;6277018;22;19909;-83
2021/12/04 01:09:47;;;;;;;60.83;23.42;;;6.70;99.90;;;;;;6276478;22;20484;-83
2021/12/04 01:12:31;;;;;;;57.83;23.83;;;4.40;99.90;;;;;;6277009;22;20011;-84
2021/12/04 01:15:16;;;;;;;70.78;23.83;;;4.90;99.90;;;;;;6211544;22;20018;-83
2021/12/04 01:18:00;;;;;;;70.85;25.77;;;4.70;99.90;;;;;;6232520;22;20022;-83
2021/12/04 01:20:45;;;;;;;70.18;24.35;;;4.90;99.90;;;;;;6253453;22;20077;-83
2021/12/04 01:23:32;;;;;;;65.57;23.73;;;4.40;99.90;;;;;;6276841;22;20404;-84
2021/12/04 01:26:16;;;;;;;75.70;26.13;;;4.40;99.90;;;;;;6253920;22;20057;-83
2021/12/04 01:29:01;;;;;;;57.85;23.63;;;4.50;99.90;;;;;;6232320;22;20014;-83
2021/12/04 01:31:46;;;;;;;61.38;23.63;;;5.00;99.90;;;;;;6232122;22;20449;-83
2021/12/04 01:34:30;;;;;;;64.55;24.13;;;4.40;99.90;;;;;;6232549;22;20058;-85
2021/12/04 01:37:15;;;;;;;77.55;24.15;;;4.80;99.90;;;;;;6232299;22;20334;-83
2021/12/04 01:39:59;;;;;;;71.32;23.77;;;4.70;99.90;;;;;;6252803;22;20014;-83
2021/12/04 01:42:44;;;;;;;76.35;24.75;;;4.40;99.90;;;;;;6252930;22;20061;-85
2021/12/04 01:45:29;;;;;;;75.03;24.05;;;5.30;99.90;;;;;;6253524;22;20025;-85
2021/12/04 01:48:13;;;;;;;81.03;23.95;;;4.40;99.90;;;;;;6253485;22;20019;-83
2021/12/04 01:50:58;;;;;;;87.43;26.05;;;4.60;99.90;;;;;;6252951;22;20015;-83
2021/12/04 01:53:43;;;;;;;74.38;23.50;;;4.40;99.90;;;;;;6252991;22;20572;-84
2021/12/04 01:56:30;;;;;;;78.78;24.30;;;5.20;99.90;;;;;;6253318;22;20132;-84
2021/12/04 01:59:15;;;;;;;66.60;22.25;;;5.80;99.90;;;;;;6253436;22;20014;-85
2021/12/04 02:02:00;;;;;;;70.50;24.33;;;4.50;99.90;;;;;;6231461;22;20018;-83
2021/12/04 02:04:44;;;;;;;69.10;22.45;;;5.40;99.90;;;;;;6252752;22;20058;-84
2021/12/04 02:07:30;;;;;;;67.70;23.10;;;5.50;99.90;;;;;;6231783;22;20019;-84
2021/12/04 02:10:14;;;;;;;68.00;21.60;;;4.40;99.90;;;;;;6211062;22;20095;-84
2021/12/04 02:12:59;;;;;;;57.72;20.92;;;4.60;99.90;;;;;;6231557;22;20046;-83
2021/12/04 02:15:46;;;;;;;62.38;21.08;;;4.40;99.90;;;;;;6252625;22;20020;-87
2021/12/04 02:18:31;;;;;;;50.55;21.33;;;4.40;99.90;;;;;;6253525;22;20034;-84
2021/12/04 02:21:16;;;;;;;59.28;21.27;;;5.80;99.90;;;;;;6253133;22;20026;-83
2021/12/04 02:24:01;;;;;;;46.75;18.67;;;4.70;99.90;;;;;;6252716;22;20014;-83
2021/12/04 02:26:50;;;;;;;46.60;18.42;;;4.50;99.90;;;;;;6252646;22;20087;-88
2021/12/04 02:29:34;;;;;;;40.90;18.92;;;4.90;99.90;;;;;;6253233;22;20054;-83
2021/12/04 02:32:20;;;;;;;40.65;17.70;;;5.50;99.90;;;;;;6210696;22;20495;-83
2021/12/04 02:35:07;;;;;;;40.03;17.73;;;4.40;99.90;;;;;;6252577;22;20012;-83
2021/12/04 02:37:53;;;;;;;37.35;17.13;;;4.40;99.90;;;;;;6252714;22;20018;-83
2021/12/04 02:40:37;;;;;;;35.50;16.00;;;4.40;99.90;;;;;;6252682;22;20097;-83
2021/12/04 02:43:22;;;;;;;33.45;16.00;;;4.50;99.90;;;;;;6237882;22;20080;-83
2021/12/04 02:46:07;;;;;;;31.35;16.67;;;4.40;99.90;;;;;;6283434;22;20083;-83
2021/12/04 02:48:51;;;;;;;32.03;15.68;;;4.40;99.90;;;;;;6261325;22;20018;-84
2021/12/04 02:51:36;;;;;;;30.13;15.33;;;4.50;99.90;;;;;;6283788;22;20044;-84
2021/12/04 02:54:20;;;;;;;29.15;14.73;;;4.50;99.90;;;;;;6262299;22;20026;-83
2021/12/04 02:57:07;;;;;;;29.60;16.10;;;4.50;99.90;;;;;;6283316;22;20077;-83
2021/12/04 02:59:51;;;;;;;31.17;15.45;;;5.00;99.90;;;;;;6306339;22;20094;-84
2021/12/04 03:02:35;;;;;;;26.60;14.50;;;4.50;99.90;;;;;;6262336;22;20086;-83
2021/12/04 03:05:24;;;;;;;28.92;15.30;;;4.40;99.90;;;;;;6283710;22;20014;-83
2021/12/04 03:08:08;;;;;;;27.90;14.67;;;4.40;99.90;;;;;;6242103;22;20344;-83
2021/12/04 03:10:52;;;;;;;28.58;14.93;;;4.40;99.90;;;;;;6283025;22;20467;-84
2021/12/04 03:13:37;;;;;;;26.67;14.70;;;4.40;99.90;;;;;;6283843;22;20039;-85
2021/12/04 03:16:21;;;;;;;29.95;14.85;;;5.00;99.90;;;;;;6283593;22;20081;-83
2021/12/04 03:19:06;;;;;;;31.13;14.63;;;4.70;99.90;;;;;;6240369;22;20069;-83
2021/12/04 03:21:51;;;;;;;26.48;14.27;;;4.40;99.90;;;;;;6306724;22;20045;-87
2021/12/04 03:24:39;;;;;;;30.60;15.43;;;4.80;99.90;;;;;;6262414;22;20104;-83
2021/12/04 03:27:25;;;;;;;29.67;14.57;;;4.40;99.90;;;;;;6263132;22;20022;-83
2021/12/04 03:30:21;;;;;;;32.28;16.45;;;4.40;99.90;;;;;;6283126;22;20144;-84
2021/12/04 03:41:55;;;;;;;30.35;14.02;;;4.40;99.90;;;;;;6287281;22;20352;-84
2021/12/04 03:44:40;;;;;;;29.52;14.77;;;4.40;99.90;;;;;;6220888;22;20038;-84
2021/12/04 03:47:25;;;;;;;34.20;15.20;;;4.40;99.90;;;;;;6231683;22;20065;-83
2021/12/04 03:50:09;;;;;;;29.65;15.23;;;4.40;99.90;;;;;;6275113;22;20018;-83
2021/12/04 03:52:54;;;;;;;34.70;16.53;;;5.10;99.90;;;;;;6210235;22;20381;-86
2021/12/04 03:55:39;;;;;;;33.83;15.18;;;4.40;99.90;;;;;;6253028;22;20488;-83
2021/12/04 03:58:24;;;;;;;32.60;14.57;;;4.50;99.90;;;;;;6231416;22;20023;-83
2021/12/04 04:01:08;;;;;;;30.17;14.30;;;4.30;99.90;;;;;;6275637;22;20018;-83
2021/12/04 04:03:52;;;;;;;37.67;16.43;;;4.40;99.90;;;;;;6233265;22;20452;-83
2021/12/04 04:06:37;;;;;;;34.53;16.83;;;4.30;99.90;;;;;;6233272;22;20397;-84
2021/12/04 04:09:21;;;;;;;32.97;14.50;;;5.20;99.90;;;;;;6211809;22;20069;-83
2021/12/04 04:12:06;;;;;;;30.80;14.85;;;4.30;99.90;;;;;;6254110;22;20019;-84
2021/12/04 04:14:50;;;;;;;32.42;15.45;;;4.30;99.90;;;;;;6254814;22;20069;-83
2021/12/04 04:17:42;;;;;;;34.40;15.80;;;4.30;99.90;;;;;;6233089;22;20087;-83
2021/12/04 04:20:26;;;;;;;35.60;16.45;;;4.40;99.90;;;;;;6234511;22;20095;-83
2021/12/04 04:23:10;;;;;;;;;;;4.30;99.90;;;;;;6254478;22;20018;-84
2021/12/04 04:25:57;;;;;;;35.60;14.27;;;4.30;99.90;;;;;;6254324;22;19956;-83
2021/12/04 04:28:41;;;;;;;30.90;14.30;;;5.00;99.90;;;;;;6233649;22;20093;-84
2021/12/04 04:31:26;;;;;;;32.35;15.57;;;4.30;99.90;;;;;;6232977;22;20083;-83
2021/12/04 04:34:10;;;;;;;41.40;15.48;;;5.80;99.90;;;;;;6232558;22;20014;-84
2021/12/04 05:14:56;;;;;;;42.95;15.48;;;4.30;99.90;;;;;;6305222;22;20038;-85
2021/12/04 05:20:35;;;;;;;43.27;15.17;;;4.40;99.90;;;;;;6307387;22;20033;-83
2021/12/04 05:23:21;;;;;;;41.10;15.57;;;5.30;99.90;;;;;;6285120;22;20061;-82
2021/12/04 05:26:08;;;;;;;51.47;15.38;;;4.40;99.90;;;;;;6305341;22;20026;-83
2021/12/04 05:28:54;;;;;;;35.70;14.73;;;4.40;99.90;;;;;;6305258;22;20516;-83
2021/12/04 05:31:38;;;;;;;40.17;14.02;;;4.40;99.90;;;;;;6284631;22;20018;-83
2021/12/04 05:34:23;;;;;;;38.42;14.23;;;4.40;99.90;;;;;;6262679;22;20065;-84
2021/12/04 05:37:07;;;;;;;38.75;15.10;;;4.40;99.90;;;;;;6305271;22;20029;-82
2021/12/04 05:39:51;;;;;;;47.03;15.85;;;4.40;99.90;;;;;;6283582;22;20086;-84
2021/12/04 05:42:35;;;;;;;40.75;14.48;;;5.10;99.90;;;;;;6305918;22;20072;-83
2021/12/04 05:45:23;;;;;;;38.58;15.05;;;5.40;99.90;;;;;;6284301;22;20014;-83
2021/12/04 05:48:19;;;;;;;56.70;15.75;;;5.40;99.90;;;;;;6305310;22;20076;-83
2021/12/04 05:56:34;;;;;;;61.78;16.65;;;5.80;99.90;;;;;;6307073;22;20022;-83
2021/12/04 05:59:19;;;;;;;49.75;16.10;;;4.40;99.90;;;;;;6306925;22;20033;-83
2021/12/04 06:02:04;;;;;;;43.58;15.60;;;4.40;99.90;;;;;;6282729;22;20068;-81
2021/12/04 06:04:48;;;;;;;45.83;15.27;;;4.40;99.90;;;;;;6305428;22;20014;-83
2021/12/04 06:07:32;;;;;;;;;;;5.40;99.90;;;;;;6284095;22;20064;-83
2021/12/04 06:10:17;;;;;;;44.67;15.18;;;4.80;99.90;;;;;;6305306;22;20391;-83
2021/12/04 06:13:01;;;;;;;77.40;17.85;;;4.60;99.90;;;;;;6283083;22;20018;-82
2021/12/04 06:15:46;;;;;;;51.22;15.30;;;4.90;99.90;;;;;;6283770;22;20115;-82
2021/12/04 06:18:32;;;;;;;47.63;15.07;;;4.80;99.90;;;;;;6305539;22;20053;-84
2021/12/04 06:24:18;;;;;;;49.53;15.98;;;4.70;99.90;;;;;;6304634;22;20022;-83
2021/12/04 06:27:03;;;;;;;47.40;16.27;;;4.40;99.90;;;;;;6282588;22;20034;-83
2021/12/04 06:29:47;;;;;;;46.95;16.85;;;4.40;99.90;;;;;;6283302;22;20022;-82
2021/12/04 06:32:36;;;;;;;64.47;17.63;;;4.40;99.90;;;;;;6306643;22;20136;-83
2021/12/04 06:35:23;;;;;;;51.92;15.65;;;4.40;99.90;;;;;;6306682;22;20104;-82
2021/12/04 06:38:09;;;;;;;51.35;16.52;;;4.40;99.90;;;;;;6304820;22;20030;-82
2021/12/04 06:40:54;;;;;;;44.60;16.23;;;5.00;99.90;;;;;;6305484;22;20455;-82
2021/12/04 06:43:45;;;;;;;46.28;15.73;;;4.40;99.90;;;;;;6306699;22;20014;-82
2021/12/04 06:46:30;;;;;;;61.03;17.70;;;5.20;99.90;;;;;;6306037;22;20395;-83
2021/12/04 06:49:22;;;;;;;53.42;15.73;;;5.20;99.90;;;;;;6304119;22;20021;-83
2021/12/04 06:52:11;;;;;;;52.67;16.52;;;4.40;99.90;;;;;;6262922;22;20332;-82
2021/12/04 06:55:01;;;;;;;46.25;15.18;;;4.40;99.90;;;;;;6284430;22;20042;-84
2021/12/04 06:57:46;;;;;;;51.35;15.48;;;4.40;99.90;;;;;;6304744;22;20065;-84
2021/12/04 07:00:32;;;;;;;47.78;15.25;;;6.50;99.90;;;;;;6262531;22;20017;-84
2021/12/04 07:03:17;;;;;;;52.42;16.88;;;4.40;99.90;;;;;;6304734;22;20015;-83
2021/12/04 07:06:02;;;;;;;50.85;15.05;;;5.40;99.90;;;;;;6306011;22;20137;-84
2021/12/04 07:08:46;;;;;;;45.80;15.82;;;4.40;99.90;;;;;;6306767;22;20014;-83
2021/12/04 07:11:31;;;;;;;52.13;16.02;;;4.40;99.90;;;;;;6283348;22;20014;-85
2021/12/04 07:14:15;;;;;;;47.50;14.93;;;3.90;99.90;;;;;;6282874;22;20015;-83
2021/12/04 07:17:02;;;;;;;;;;;4.40;99.90;;;;;;6306804;22;20026;-83
2021/12/04 07:19:46;;;;;;;49.53;15.52;;;4.40;99.90;;;;;;6305311;22;19910;-83
2021/12/04 07:22:30;;;;;;;;;;;4.50;99.90;;;;;;6283774;22;20018;-83
2021/12/04 07:25:15;;;;;;;42.40;15.57;;;4.40;99.90;;;;;;6304884;22;19928;-84
2021/12/04 07:27:59;;;;;;;54.20;15.35;;;4.40;99.90;;;;;;6305364;22;20056;-84
2021/12/04 07:30:44;;;;;;;46.10;15.75;;;4.50;99.90;;;;;;6262050;22;20453;-83
2021/12/04 07:33:28;;;;;;;47.92;14.90;;;4.40;99.90;;;;;;6304877;22;20015;-83
2021/12/04 07:36:13;;;;;;;44.28;15.80;;;6.20;99.90;;;;;;6305757;22;20022;-84
2021/12/04 07:39:01;;;;;;;48.17;15.20;;;4.40;99.90;;;;;;6263800;22;20395;-83
2021/12/04 07:41:45;;;;;;;61.30;15.35;;;5.30;99.90;;;;;;6308157;22;20444;-83
2021/12/04 07:44:30;;;;;;;51.45;15.48;;;4.40;99.90;;;;;;6284856;22;20388;-82
2021/12/04 07:47:15;;;;;;;45.03;14.15;;;4.40;99.90;;;;;;6306408;22;20050;-83
2021/12/04 07:50:01;;;;;;;52.10;15.05;;;4.60;99.90;;;;;;6307061;22;20022;-84
2021/12/04 07:52:45;;;;;;;59.58;16.30;;;4.40;99.90;;;;;;6285409;22;20072;-83
2021/12/04 07:55:30;;;;;;;34.50;13.85;;;4.40;99.90;;;;;;6285277;22;20436;-83
2021/12/04 07:58:15;;;;;;;42.85;14.68;;;4.30;99.90;;;;;;6306838;22;20010;-84
2021/12/04 08:01:00;;;;;;;52.83;14.57;;;4.40;99.90;;;;;;6307073;22;20141;-83
2021/12/04 08:03:44;;;;;;;64.85;16.55;;;4.40;99.90;;;;;;6285119;22;20095;-83
2021/12/04 08:06:28;;;;;;;55.58;15.93;;;4.30;99.90;;;;;;6306611;22;20500;-83
2021/12/04 08:09:13;;;;;;;44.17;13.90;;;4.30;99.90;;;;;;6306335;22;20057;-84
2021/12/04 08:11:57;;;;;;;46.72;13.93;;;6.60;99.90;;;;;;6306973;22;20391;-83
2021/12/04 08:14:41;;;;;;;49.10;13.70;;;4.40;99.90;;;;;;6307002;22;20018;-83
2021/12/04 08:17:26;;;;;;;34.00;13.97;;;5.00;99.90;;;;;;6305956;22;20026;-83
2021/12/04 08:20:11;;;;;;;;;;;4.80;99.90;;;;;;6308338;22;20525;-88
2021/12/04 08:22:55;;;;;;;30.93;13.00;;;4.40;99.90;;;;;;6307065;22;20240;-83
2021/12/04 08:25:40;;;;;;;27.08;10.85;;;4.30;99.90;;;;;;6306629;22;20066;-83
2021/12/04 08:28:24;;;;;;;30.73;10.93;;;4.50;99.90;;;;;;6306294;22;20064;-83
2021/12/04 08:31:09;;;;;;;27.27;11.00;;;4.40;99.90;;;;;;6306835;22;20013;-83
2021/12/04 08:33:53;;;;;;;27.27;11.50;;;4.80;99.90;;;;;;6263125;22;20018;-83
2021/12/04 08:36:36;;;;;;;;;;;4.90;99.90;;;;;;6307338;22;20096;-83
2021/12/04 08:39:21;;;;;;;18.98;8.80;;;4.40;99.90;;;;;;6307309;22;19909;-83
2021/12/04 08:42:06;;;;;;;18.88;8.77;;;4.40;99.90;;;;;;6308089;22;20336;-84
2021/12/04 08:44:50;;;;;;;19.58;9.43;;;5.70;99.90;;;;;;6263073;22;20088;-83
2021/12/04 08:47:36;;;;;;;15.90;9.05;;;4.40;99.90;;;;;;6283857;22;20018;-83
2021/12/04 08:50:26;;;;;;;17.63;10.15;;;4.40;99.90;;;;;;6284474;22;20026;-83
2021/12/04 08:53:11;;;;;;;20.38;9.93;;;5.60;99.90;;;;;;6306527;22;20014;-83
2021/12/04 08:55:56;;;;;;;19.23;10.75;;;5.70;99.90;;;;;;6306470;22;20058;-83
2021/12/04 08:58:42;;;;;;;20.50;10.68;;;5.20;99.90;;;;;;6284584;22;20067;-83
2021/12/04 09:01:30;;;;;;;19.88;9.70;;;4.50;99.90;;;;;;6284138;22;20068;-83
2021/12/04 09:04:26;;;;;;;20.05;9.82;;;4.50;99.90;;;;;;6306094;22;20053;-88
2021/12/04 09:07:11;;;;;;;18.25;10.13;;;4.60;99.90;;;;;;6306046;22;20018;-85
2021/12/04 09:09:57;;;;;;;16.02;10.43;;;4.70;99.90;;;;;;6284449;22;20085;-83
2021/12/04 09:12:42;;;;;;;18.30;9.85;;;7.10;99.90;;;;;;6284271;22;20046;-83
2021/12/04 09:15:31;;;;;;;18.05;10.55;;;4.60;99.90;;;;;;6283847;22;20018;-83
2021/12/04 09:18:16;;;;;;;16.42;10.25;;;4.70;99.90;;;;;;6305935;22;20026;-83
2021/12/04 09:21:00;;;;;;;17.10;10.30;;;5.60;99.90;;;;;;6305629;22;20017;-84
2021/12/04 09:23:53;;;;;;;18.40;9.80;;;4.70;99.90;;;;;;6305465;22;20498;-84
2021/12/04 09:26:48;;;;;;;15.82;9.77;;;4.70;99.90;;;;;;6284999;22;20073;-84
2021/12/04 10:06:05;;;;;;;19.25;10.10;;;5.00;99.90;;;;;;6304834;22;20102;-83
2021/12/04 10:12:32;;;;;;;20.80;10.40;;;5.00;99.90;;;;;;6306349;22;20115;-83
2021/12/04 10:21:34;;;;;;;19.50;10.48;;;5.10;99.90;;;;;;6305828;22;20091;-86
2021/12/04 10:33:40;;;;;;;16.88;10.13;;;5.10;99.90;;;;;;6304558;22;20018;-82
2021/12/04 10:36:34;;;;;;;19.40;10.88;;;5.90;99.90;;;;;;6306528;22;20064;-83
2021/12/04 10:39:19;;;;;;;15.20;10.03;;;5.20;99.90;;;;;;6305282;22;20053;-83
2021/12/04 10:42:09;;;;;;;16.95;9.55;;;5.30;99.90;;;;;;6305178;22;20229;-82
2021/12/04 10:44:55;;;;;;;16.88;10.13;;;5.20;99.90;;;;;;6306250;22;20377;-82
2021/12/04 10:47:53;;;;;;;19.35;10.20;;;5.20;99.90;;;;;;6305697;22;20081;-83
2021/12/04 10:53:38;;;;;;;17.10;9.05;;;5.20;99.90;;;;;;6305574;22;20018;-83
2021/12/04 10:59:40;;;;;;;19.02;10.10;;;5.20;99.90;;;;;;6304925;22;20018;-83
2021/12/04 11:02:41;;;;;;;17.73;10.55;;;5.30;99.90;;;;;;6272936;22;20056;-82
2021/12/04 11:05:52;;;;;;;18.35;10.35;;;5.20;99.90;;;;;;6305178;22;20068;-82
2021/12/04 11:42:29;;;;;;;21.65;10.60;;;5.40;99.90;;;;;;6298224;22;20022;-81
2021/12/04 11:45:30;;;;;;;25.03;11.37;;;5.40;99.90;;;;;;6285162;22;20065;-81
2021/12/04 11:48:15;;;;;;;22.90;11.32;;;5.30;99.90;;;;;;6306110;22;20261;-81
2021/12/04 11:51:02;;;;;;;22.20;11.43;;;5.40;99.90;;;;;;6304143;22;20041;-81
2021/12/04 11:53:47;;;;;;;24.00;11.40;;;5.70;99.90;;;;;;6304227;22;20018;-81
2021/12/04 11:56:32;;;;;;;22.63;11.63;;;5.40;99.90;;;;;;6306072;22;20022;-81
2021/12/04 11:59:26;;;;;;;28.42;12.25;;;5.30;99.90;;;;;;6283118;22;20014;-81
2021/12/04 12:02:18;;;;;;;21.52;11.40;;;5.40;99.90;;;;;;6305309;22;20010;-82
2021/12/04 12:05:08;;;;;;;18.70;11.02;;;5.40;99.90;;;;;;6304401;22;20133;-86
2021/12/04 12:07:56;;;;;;;25.58;11.85;;;5.30;99.90;;;;;;6304051;22;20517;-83
2021/12/04 12:10:48;;;;;;;23.92;12.80;;;5.30;99.90;;;;;;6303424;22;20014;-84
2021/12/04 12:14:05;;;;;;;24.33;12.10;;;5.30;99.90;;;;;;6306136;22;20436;-82
2021/12/04 12:16:53;;;;;;;27.73;13.18;;;5.40;99.90;;;;;;6305302;22;20089;-80
2021/12/04 12:19:52;;;;;;;27.08;13.90;;;5.50;99.90;;;;;;6305978;22;20061;-84
2021/12/04 12:25:48;;;;;;;28.85;14.32;;;5.40;99.90;;;;;;6307408;22;20108;-83
2021/12/04 12:37:26;;;;;;;35.38;15.30;;;5.40;99.90;;;;;;6307364;22;20022;-81
2021/12/04 12:40:12;;;;;;;31.15;15.98;;;5.40;99.90;;;;;;6306086;22;20018;-82
2021/12/04 12:42:56;;;;;;;32.53;16.63;;;5.40;99.90;;;;;;6283823;22;20333;-81
2021/12/04 12:45:51;;;;;;;38.00;16.90;;;5.40;99.90;;;;;;6262489;22;20076;-81
2021/12/04 12:48:52;;;;;;;35.17;17.00;;;5.40;99.90;;;;;;6307202;22;20010;-84
2021/12/04 12:51:36;;;;;;;37.17;18.40;;;5.40;99.90;;;;;;6307178;22;20025;-82
2021/12/04 12:54:28;;;;;;;;;;;5.30;99.90;;;;;;6306309;22;20463;-81
2021/12/04 12:57:36;;;;;;;44.90;20.58;;;5.30;99.90;;;;;;6306390;22;19917;-81
2021/12/04 13:12:21;;;;;;;52.45;21.88;;;5.30;99.90;;;;;;6305754;22;20087;-85
2021/12/04 13:15:10;;;;;;;47.78;20.60;;;5.30;99.90;;;;;;6303521;22;20022;-84
2021/12/04 13:17:55;;;;;;;46.85;20.27;;;5.30;99.90;;;;;;6304702;22;20018;-82
2021/12/04 13:20:40;;;;;;;46.53;19.02;;;5.30;99.90;;;;;;6305432;22;20014;-83
2021/12/04 13:23:26;;;;;;;54.00;21.83;;;5.30;99.90;;;;;;6303615;22;20014;-82
2021/12/04 13:26:12;;;;;;;45.30;21.02;;;5.30;99.90;;;;;;6303699;22;20048;-82
2021/12/04 13:28:59;;;;;;;48.15;20.40;;;5.30;99.90;;;;;;6304256;22;20344;-82
2021/12/04 13:31:45;;;;;;;47.88;20.42;;;5.30;99.90;;;;;;6302890;22;20066;-83
2021/12/04 13:34:29;;;;;;;46.03;20.50;;;5.40;99.90;;;;;;6304625;22;20134;-82
2021/12/04 13:37:14;;;;;;;47.70;20.40;;;5.40;99.90;;;;;;6303243;22;20056;-82
2021/12/04 13:40:03;;;;;;;42.42;19.15;;;5.40;99.90;;;;;;6280836;22;20444;-82
2021/12/04 13:42:48;;;;;;;46.17;20.05;;;5.40;99.90;;;;;;6303689;22;20073;-82
2021/12/04 13:45:32;;;;;;;45.97;19.38;;;5.40;99.90;;;;;;6303497;22;20014;-82
2021/12/04 13:48:19;;;;;;;41.70;19.50;;;5.40;99.90;;;;;;6303615;22;20153;-82
2021/12/04 13:51:04;;;;;;;41.28;19.65;;;5.40;99.90;;;;;;6280622;22;20062;-83
2021/12/04 13:53:49;;;;;;;49.10;19.60;;;5.40;99.90;;;;;;6304729;22;20080;-82
2021/12/04 13:56:33;;;;;;;37.30;18.45;;;5.50;99.90;;;;;;6303406;22;20094;-82
2021/12/04 13:59:25;;;;;;;44.50;20.27;;;5.40;99.90;;;;;;6303956;22;20341;-82
2021/12/04 14:02:25;;;;;;;46.53;21.08;;;5.50;99.90;;;;;;6302508;22;20040;-83
2021/12/04 14:05:22;;;;;;;44.65;20.95;;;5.40;99.90;;;;;;6303090;22;20014;-82
2021/12/04 14:08:08;;;;;;;51.08;21.25;;;5.50;99.90;;;;;;6304049;22;20205;-82
2021/12/04 14:10:52;;;;;;;53.97;21.45;;;5.40;99.90;;;;;;6281870;22;20488;-82
2021/12/04 14:13:38;;;;;;;53.10;22.15;;;5.40;99.90;;;;;;6304812;22;20107;-83
2021/12/04 14:16:26;;;;;;;48.65;22.15;;;5.30;99.90;;;;;;6303289;22;20067;-81
2021/12/04 14:19:25;;;;;;;46.92;21.08;;;5.40;99.90;;;;;;6302783;22;20014;-82
2021/12/04 14:22:12;;;;;;;44.38;21.10;;;5.90;99.90;;;;;;6302666;22;20465;-82
2021/12/04 14:25:01;;;;;;;51.80;22.60;;;5.40;99.90;;;;;;6303390;22;20042;-85
2021/12/04 14:27:46;;;;;;;58.33;23.08;;;5.40;99.90;;;;;;6303530;22;20238;-82
2021/12/04 14:30:33;;;;;;;58.15;24.02;;;5.40;99.90;;;;;;6304304;22;20023;-82
2021/12/04 14:33:26;;;;;;;53.92;24.15;;;6.20;99.90;;;;;;6303038;22;20699;-81
2021/12/04 14:36:11;;;;;;;57.80;23.75;;;5.40;99.90;;;;;;6304609;22;20056;-81
2021/12/04 14:38:58;;;;;;;55.17;25.40;;;5.30;99.90;;;;;;6304093;22;20060;-85
2021/12/04 14:41:42;;;;;;;56.97;24.15;;;5.40;99.90;;;;;;6304563;22;20329;-83
2021/12/04 14:44:26;;;;;;;55.00;25.23;;;5.40;99.90;;;;;;6282365;22;20046;-82
2021/12/04 14:47:11;;;;;;;59.85;25.13;;;5.40;99.90;;;;;;6281628;22;20038;-84
2021/12/04 14:50:00;;;;;;;54.13;25.30;;;5.40;99.90;;;;;;6282108;22;20076;-81
2021/12/04 14:52:49;;;;;;;63.15;25.77;;;5.40;99.90;;;;;;6307053;22;20069;-82
2021/12/04 14:55:37;;;;;;;61.45;27.02;;;5.30;99.90;;;;;;6306240;22;20057;-82
2021/12/04 14:58:24;;;;;;;61.17;27.65;;;5.30;99.90;;;;;;6305715;22;20396;-81
2021/12/04 15:01:12;;;;;;;70.57;28.85;;;5.50;99.90;;;;;;6304431;22;20014;-82
2021/12/04 15:03:59;;;;;;;69.55;29.25;;;5.50;99.90;;;;;;6306125;22;20491;-82
2021/12/04 15:06:43;;;;;;;78.32;29.52;;;5.30;99.90;;;;;;6305241;22;20014;-82
2021/12/04 15:09:28;;;;;;;71.03;28.30;;;5.30;99.90;;;;;;6304820;22;20022;-81
2021/12/04 15:12:26;;;;;;;83.20;31.08;;;6.00;99.90;;;;;;6305608;22;20349;-82
2021/12/04 15:15:12;;;;;;;73.13;27.60;;;5.30;99.90;;;;;;6304310;22;20011;-82
2021/12/04 15:18:01;;;;;;;79.15;30.08;;;5.30;99.90;;;;;;6304855;22;20026;-82
2021/12/04 15:20:59;;;;;;;77.22;29.67;;;5.20;99.90;;;;;;6305047;22;20015;-83
2021/12/04 15:23:52;;;;;;;67.68;28.38;;;5.20;99.90;;;;;;6306185;22;20440;-81
2021/12/04 15:26:41;;;;;;;79.55;30.70;;;5.20;99.90;;;;;;6306276;22;20042;-82
2021/12/04 15:29:29;;;;;;;141.45;59.63;;;5.20;99.90;;;;;;6305505;22;20017;-82
2021/12/04 15:32:16;;;;;;;93.85;37.67;;;5.20;99.90;;;;;;6305302;22;20065;-82
2021/12/04 15:35:14;;;;;;;88.63;39.53;;;5.20;99.90;;;;;;6306198;22;20014;-82
2021/12/04 15:38:04;;;;;;;103.50;44.97;;;5.20;99.90;;;;;;6305909;22;20395;-82
2021/12/04 15:46:57;;;;;;;68.90;27.40;;;5.30;99.90;;;;;;6306182;22;20125;-81
2021/12/04 15:49:57;;;;;;;58.55;27.25;;;5.20;99.90;;;;;;6305617;22;20096;-83
2021/12/04 15:56:01;;;;;;;66.93;25.42;;;5.30;99.90;;;;;;6306139;22;20478;-81
2021/12/04 15:58:47;;;;;;;65.80;27.15;;;5.30;99.90;;;;;;6307932;22;20058;-82
2021/12/04 16:01:32;;;;;;;77.93;29.15;;;5.60;99.90;;;;;;6306378;22;20459;-85
2021/12/04 16:04:23;;;;;;;73.60;27.70;;;5.30;99.90;;;;;;6307609;22;20046;-82
2021/12/04 16:07:08;;;;;;;68.82;28.75;;;5.20;99.90;;;;;;6285605;22;20514;-81
2021/12/04 16:09:52;;;;;;;;;;;5.30;99.90;;;;;;6307435;22;20061;-82
2021/12/04 16:12:38;;;;;;;70.88;27.17;;;5.20;99.90;;;;;;6307024;22;19929;-82
2021/12/04 16:15:24;;;;;;;74.22;28.75;;;5.20;99.90;;;;;;6284368;22;20487;-83
2021/12/04 16:18:09;;;;;;;70.60;28.15;;;5.20;99.90;;;;;;6306286;22;20029;-82
2021/12/04 16:20:54;;;;;;;72.22;28.98;;;5.20;99.90;;;;;;6306407;22;20068;-82
2021/12/04 16:23:40;;;;;;;70.90;28.10;;;5.20;99.90;;;;;;6305664;22;20046;-82
2021/12/04 16:26:28;;;;;;;68.65;28.13;;;5.80;99.90;;;;;;6284166;22;20070;-82
2021/12/04 16:29:14;;;;;;;70.78;27.45;;;5.30;99.90;;;;;;6284440;22;20065;-85
2021/12/04 16:37:52;;;;;;;101.35;32.33;;;5.30;99.90;;;;;;6305952;22;20106;-83
2021/12/04 16:40:42;;;;;;;87.80;31.00;;;5.20;99.90;;;;;;6305110;22;20014;-83
2021/12/04 16:43:35;;;;;;;66.65;28.13;;;5.30;99.90;;;;;;6306521;22;20014;-83
2021/12/04 16:46:24;;;;;;;87.57;31.48;;;5.30;99.90;;;;;;6306312;22;20751;-83
2021/12/04 16:49:11;;;;;;;66.00;27.92;;;5.30;99.90;;;;;;6306094;22;20061;-83
2021/12/04 17:00:31;;;;;;;63.15;26.83;;;5.20;99.90;;;;;;6306894;22;20018;-83
2021/12/04 17:03:16;;;;;;;70.15;27.33;;;5.30;99.90;;;;;;6306112;22;20018;-83
2021/12/04 17:06:00;;;;;;;57.90;27.65;;;5.30;99.90;;;;;;6305692;22;20064;-83
2021/12/04 17:08:44;;;;;;;;;;;5.30;99.90;;;;;;6307239;22;20013;-83
2021/12/04 17:11:29;;;;;;;64.25;25.30;;;5.30;99.90;;;;;;6283165;22;19999;-83
2021/12/04 17:14:13;;;;;;;54.75;23.27;;;5.30;99.90;;;;;;6284354;22;20395;-83
2021/12/04 17:17:01;;;;;;;58.25;25.40;;;5.40;99.90;;;;;;6307110;22;20349;-83
2021/12/04 17:19:46;;;;;;;58.47;24.77;;;5.20;99.90;;;;;;6305535;22;20014;-83
2021/12/04 17:22:31;;;;;;;49.30;22.77;;;5.30;99.90;;;;;;6282904;22;20330;-83
2021/12/04 17:25:17;;;;;;;54.95;22.45;;;5.80;99.90;;;;;;6304590;22;20015;-83
2021/12/04 17:28:02;;;;;;;57.60;24.17;;;5.30;99.90;;;;;;6304250;22;20348;-83
2021/12/04 17:30:48;;;;;;;57.58;24.50;;;5.70;99.90;;;;;;6304569;22;20046;-82
2021/12/04 17:33:33;;;;;;;54.13;23.33;;;5.30;99.90;;;;;;6304352;22;20058;-82
2021/12/04 17:36:17;;;;;;;;;;;5.20;99.90;;;;;;6307006;22;20284;-82
2021/12/04 17:39:05;;;;;;;38.78;18.42;;;5.40;99.90;;;;;;6305543;22;19910;-83
2021/12/04 17:41:50;;;;;;;41.25;19.38;;;5.20;99.90;;;;;;6305257;22;20072;-83
2021/12/04 17:44:35;;;;;;;34.97;18.15;;;5.20;99.90;;;;;;6305919;22;20072;-81
2021/12/04 17:47:21;;;;;;;40.10;20.25;;;5.30;99.90;;;;;;6306614;22;20018;-82
2021/12/04 17:50:05;;;;;;;46.90;22.20;;;5.10;99.90;;;;;;6306989;22;20038;-81
2021/12/04 17:52:51;;;;;;;53.63;22.20;;;5.10;99.90;;;;;;6284147;22;20022;-81
2021/12/04 17:55:36;;;;;;;43.13;22.52;;;5.20;99.90;;;;;;6304776;22;20018;-83